sensor_id;sensor_type;location;lat;lon;timestamp;temperature;humidity
18141;DHT22;9196;49.194;12.526;2022-09-28T00:01:40;7.80;99.90
18141;DHT22;9196;49.194;12.526;2022-09-28T00:04:07;7.80;99.90
18141;DHT22;9196;49.194;12.526;2022-09-28T00:06:34;7.80;99.90
18141;DHT22;9196;49.194;12.526;2022-09-28T00:09:01;7.80;99.90
18141;DHT22;9196;49.194;12.526;2022-09-28T00:11:28;7.80;99.90
18141;DHT22;9196;49.194;12.526;2022-09-28T00:13:57;7.80;99.90
18141;DHT22;9196;49.194;12.526;2022-09-28T00:16:27;7.80;99.90
18141;DHT22;9196;49.194;12.526;2022-09-28T00:18:57;7.80;99.90
18141;DHT22;9196;49.194;12.526;2022-09-28T00:21:25;7.70;99.90
18141;DHT22;9196;49.194;12.526;2022-09-28T00:23:54;7.80;99.90
18141;DHT22;9196;49.194;12.526;2022-09-28T00:26:43;7.70;99.90
18141;DHT22;9196;49.194;12.526;2022-09-28T00:29:15;7.70;99.90
18141;DHT22;9196;49.194;12.526;2022-09-28T00:31:43;7.70;99.90
18141;DHT22;9196;49.194;12.526;2022-09-28T00:34:11;7.70;99.90
18141;DHT22;9196;49.194;12.526;2022-09-28T00:36:41;7.80;99.90
18141;DHT22;9196;49.194;12.526;2022-09-28T00:39:08;7.80;99.90
18141;DHT22;9196;49.194;12.526;2022-09-28T00:41:36;7.90;99.90
18141;DHT22;9196;49.194;12.526;2022-09-28T00:44:33;7.80;99.90
18141;DHT22;9196;49.194;12.526;2022-09-28T00:47:06;7.90;99.90
18141;DHT22;9196;49.194;12.526;2022-09-28T00:49:40;7.90;99.90
18141;DHT22;9196;49.194;12.526;2022-09-28T00:52:11;7.90;99.90
18141;DHT22;9196;49.194;12.526;2022-09-28T00:54:41;7.90;99.90
18141;DHT22;9196;49.194;12.526;2022-09-28T00:57:09;8.00;99.90
18141;DHT22;9196;49.194;12.526;2022-09-28T00:59:36;8.00;99.90
18141;DHT22;9196;49.194;12.526;2022-09-28T01:02:03;8.00;99.90
18141;DHT22;9196;49.194;12.526;2022-09-28T01:04:30;8.00;99.90
18141;DHT22;9196;49.194;12.526;2022-09-28T01:06:58;8.00;99.90
18141;DHT22;9196;49.194;12.526;2022-09-28T01:09:26;8.00;99.90
18141;DHT22;9196;49.194;12.526;2022-09-28T01:11:53;8.00;99.90
18141;DHT22;9196;49.194;12.526;2022-09-28T01:14:21;8.00;99.90
18141;DHT22;9196;49.194;12.526;2022-09-28T01:16:56;8.00;99.90
18141;DHT22;9196;49.194;12.526;2022-09-28T01:22:29;8.00;99.90
18141;DHT22;9196;49.194;12.526;2022-09-28T01:25:04;7.90;99.90
18141;DHT22;9196;49.194;12.526;2022-09-28T01:27:36;7.90;99.90
18141;DHT22;9196;49.194;12.526;2022-09-28T01:30:07;7.90;99.90
18141;DHT22;9196;49.194;12.526;2022-09-28T01:32:40;8.00;99.90
18141;DHT22;9196;49.194;12.526;2022-09-28T01:35:13;8.00;99.90
18141;DHT22;9196;49.194;12.526;2022-09-28T01:37:45;8.00;99.90
18141;DHT22;9196;49.194;12.526;2022-09-28T01:40:13;8.10;99.90
18141;DHT22;9196;49.194;12.526;2022-09-28T01:42:44;8.10;99.90
18141;DHT22;9196;49.194;12.526;2022-09-28T01:45:17;8.10;99.90
18141;DHT22;9196;49.194;12.526;2022-09-28T01:47:46;8.10;99.90
18141;DHT22;9196;49.194;12.526;2022-09-28T01:50:16;8.10;99.90
18141;DHT22;9196;49.194;12.526;2022-09-28T01:52:47;8.00;99.90
18141;DHT22;9196;49.194;12.526;2022-09-28T01:55:19;8.10;99.90
18141;DHT22;9196;49.194;12.526;2022-09-28T01:57:54;8.10;99.90
18141;DHT22;9196;49.194;12.526;2022-09-28T02:00:23;8.10;99.90
18141;DHT22;9196;49.194;12.526;2022-09-28T02:02:56;8.10;99.90
18141;DHT22;9196;49.194;12.526;2022-09-28T02:05:27;8.20;99.90
18141;DHT22;9196;49.194;12.526;2022-09-28T02:08:00;8.20;99.90
18141;DHT22;9196;49.194;12.526;2022-09-28T02:10:31;8.20;99.90
18141;DHT22;9196;49.194;12.526;2022-09-28T02:13:04;8.30;99.90
18141;DHT22;9196;49.194;12.526;2022-09-28T02:15:34;8.30;99.90
18141;DHT22;9196;49.194;12.526;2022-09-28T02:18:03;8.30;99.90
18141;DHT22;9196;49.194;12.526;2022-09-28T02:20:31;8.20;99.90
18141;DHT22;9196;49.194;12.526;2022-09-28T02:22:58;8.20;99.90
18141;DHT22;9196;49.194;12.526;2022-09-28T02:25:29;8.30;99.90
18141;DHT22;9196;49.194;12.526;2022-09-28T02:28:03;8.20;99.90
18141;DHT22;9196;49.194;12.526;2022-09-28T02:30:31;8.20;99.90
18141;DHT22;9196;49.194;12.526;2022-09-28T02:33:02;8.10;99.90
18141;DHT22;9196;49.194;12.526;2022-09-28T02:35:30;8.10;99.90
18141;DHT22;9196;49.194;12.526;2022-09-28T02:37:59;8.10;99.90
18141;DHT22;9196;49.194;12.526;2022-09-28T02:40:29;8.10;99.90
18141;DHT22;9196;49.194;12.526;2022-09-28T02:43:03;8.10;99.90
18141;DHT22;9196;49.194;12.526;2022-09-28T02:45:49;8.00;99.90
18141;DHT22;9196;49.194;12.526;2022-09-28T02:48:28;8.00;99.90
18141;DHT22;9196;49.194;12.526;2022-09-28T02:51:02;8.00;99.90
18141;DHT22;9196;49.194;12.526;2022-09-28T02:53:47;8.00;99.90
18141;DHT22;9196;49.194;12.526;2022-09-28T02:56:31;8.10;99.90
18141;DHT22;9196;49.194;12.526;2022-09-28T02:59:11;8.10;99.90
18141;DHT22;9196;49.194;12.526;2022-09-28T03:01:47;8.10;99.90
18141;DHT22;9196;49.194;12.526;2022-09-28T03:04:26;8.10;99.90
18141;DHT22;9196;49.194;12.526;2022-09-28T03:06:59;8.10;99.90
18141;DHT22;9196;49.194;12.526;2022-09-28T03:09:31;8.20;99.90
18141;DHT22;9196;49.194;12.526;2022-09-28T03:12:04;8.10;99.90
18141;DHT22;9196;49.194;12.526;2022-09-28T03:14:33;8.20;99.90
18141;DHT22;9196;49.194;12.526;2022-09-28T03:17:00;8.20;99.90
18141;DHT22;9196;49.194;12.526;2022-09-28T03:19:29;8.30;99.90
18141;DHT22;9196;49.194;12.526;2022-09-28T03:21:56;8.30;99.90
18141;DHT22;9196;49.194;12.526;2022-09-28T03:24:23;8.30;99.90
18141;DHT22;9196;49.194;12.526;2022-09-28T03:26:50;8.40;99.90
18141;DHT22;9196;49.194;12.526;2022-09-28T03:29:17;8.30;99.90
18141;DHT22;9196;49.194;12.526;2022-09-28T03:31:46;8.30;99.90
18141;DHT22;9196;49.194;12.526;2022-09-28T03:34:13;8.30;99.90
18141;DHT22;9196;49.194;12.526;2022-09-28T03:36:40;8.30;99.90
18141;DHT22;9196;49.194;12.526;2022-09-28T03:39:07;8.30;99.90
18141;DHT22;9196;49.194;12.526;2022-09-28T03:41:34;8.30;99.90
18141;DHT22;9196;49.194;12.526;2022-09-28T03:44:01;8.30;99.90
18141;DHT22;9196;49.194;12.526;2022-09-28T03:46:28;8.40;99.90
18141;DHT22;9196;49.194;12.526;2022-09-28T03:48:57;8.40;99.90
18141;DHT22;9196;49.194;12.526;2022-09-28T03:51:23;8.30;99.90
18141;DHT22;9196;49.194;12.526;2022-09-28T03:53:50;8.30;99.90
18141;DHT22;9196;49.194;12.526;2022-09-28T03:56:17;8.30;99.90
18141;DHT22;9196;49.194;12.526;2022-09-28T03:58:44;8.30;99.90
18141;DHT22;9196;49.194;12.526;2022-09-28T04:01:12;8.30;99.90
18141;DHT22;9196;49.194;12.526;2022-09-28T04:03:40;8.30;99.90
18141;DHT22;9196;49.194;12.526;2022-09-28T04:06:09;8.30;99.90
18141;DHT22;9196;49.194;12.526;2022-09-28T04:08:35;8.30;99.90
18141;DHT22;9196;49.194;12.526;2022-09-28T04:11:02;8.30;99.90
18141;DHT22;9196;49.194;12.526;2022-09-28T04:13:29;8.30;99.90
18141;DHT22;9196;49.194;12.526;2022-09-28T04:15:58;8.30;99.90
18141;DHT22;9196;49.194;12.526;2022-09-28T04:18:25;8.30;99.90
18141;DHT22;9196;49.194;12.526;2022-09-28T04:20:59;8.30;99.90
18141;DHT22;9196;49.194;12.526;2022-09-28T04:23:29;8.30;99.90
18141;DHT22;9196;49.194;12.526;2022-09-28T04:25:56;8.30;99.90
18141;DHT22;9196;49.194;12.526;2022-09-28T04:28:23;8.30;99.90
18141;DHT22;9196;49.194;12.526;2022-09-28T04:31:09;8.20;99.90
18141;DHT22;9196;49.194;12.526;2022-09-28T04:33:36;8.20;99.90
18141;DHT22;9196;49.194;12.526;2022-09-28T04:36:03;8.20;99.90
18141;DHT22;9196;49.194;12.526;2022-09-28T04:38:31;8.20;99.90
18141;DHT22;9196;49.194;12.526;2022-09-28T04:40:58;8.20;99.90
18141;DHT22;9196;49.194;12.526;2022-09-28T04:43:25;8.30;99.90
18141;DHT22;9196;49.194;12.526;2022-09-28T04:45:52;8.30;99.90
18141;DHT22;9196;49.194;12.526;2022-09-28T04:48:23;8.30;99.90
18141;DHT22;9196;49.194;12.526;2022-09-28T04:50:52;8.30;99.90
18141;DHT22;9196;49.194;12.526;2022-09-28T04:53:19;8.30;99.90
18141;DHT22;9196;49.194;12.526;2022-09-28T04:55:59;8.40;99.90
18141;DHT22;9196;49.194;12.526;2022-09-28T04:58:26;8.40;99.90
18141;DHT22;9196;49.194;12.526;2022-09-28T05:00:57;8.40;99.90
18141;DHT22;9196;49.194;12.526;2022-09-28T05:03:24;8.40;99.90
18141;DHT22;9196;49.194;12.526;2022-09-28T05:05:51;8.40;99.90
18141;DHT22;9196;49.194;12.526;2022-09-28T05:08:18;8.50;99.90
18141;DHT22;9196;49.194;12.526;2022-09-28T05:10:45;8.50;99.90
18141;DHT22;9196;49.194;12.526;2022-09-28T05:13:14;8.50;99.90
18141;DHT22;9196;49.194;12.526;2022-09-28T05:15:43;8.60;99.90
18141;DHT22;9196;49.194;12.526;2022-09-28T05:18:09;8.70;99.90
18141;DHT22;9196;49.194;12.526;2022-09-28T05:20:39;8.70;99.90
18141;DHT22;9196;49.194;12.526;2022-09-28T05:23:09;8.70;99.90
18141;DHT22;9196;49.194;12.526;2022-09-28T05:25:36;8.80;99.90
18141;DHT22;9196;49.194;12.526;2022-09-28T05:28:03;8.90;99.90
18141;DHT22;9196;49.194;12.526;2022-09-28T05:30:32;8.90;99.90
18141;DHT22;9196;49.194;12.526;2022-09-28T05:32:59;8.90;99.90
18141;DHT22;9196;49.194;12.526;2022-09-28T05:35:26;9.00;99.90
18141;DHT22;9196;49.194;12.526;2022-09-28T05:37:54;9.00;99.90
18141;DHT22;9196;49.194;12.526;2022-09-28T05:40:21;9.00;99.90
18141;DHT22;9196;49.194;12.526;2022-09-28T05:42:48;9.10;99.90
18141;DHT22;9196;49.194;12.526;2022-09-28T05:45:15;9.10;99.90
18141;DHT22;9196;49.194;12.526;2022-09-28T05:47:44;9.10;99.90
18141;DHT22;9196;49.194;12.526;2022-09-28T05:50:11;9.30;99.90
18141;DHT22;9196;49.194;12.526;2022-09-28T05:52:40;9.30;99.90
18141;DHT22;9196;49.194;12.526;2022-09-28T05:55:08;9.30;99.90
18141;DHT22;9196;49.194;12.526;2022-09-28T05:57:35;9.20;99.90
18141;DHT22;9196;49.194;12.526;2022-09-28T06:00:03;9.30;99.90
18141;DHT22;9196;49.194;12.526;2022-09-28T06:02:30;9.30;99.90
18141;DHT22;9196;49.194;12.526;2022-09-28T06:04:58;9.30;99.90
18141;DHT22;9196;49.194;12.526;2022-09-28T06:07:25;9.30;99.90
18141;DHT22;9196;49.194;12.526;2022-09-28T06:09:51;9.30;99.90
18141;DHT22;9196;49.194;12.526;2022-09-28T06:12:18;9.40;99.90
18141;DHT22;9196;49.194;12.526;2022-09-28T06:14:45;9.40;99.90
18141;DHT22;9196;49.194;12.526;2022-09-28T06:17:13;9.50;99.90
18141;DHT22;9196;49.194;12.526;2022-09-28T06:19:39;9.40;99.90
18141;DHT22;9196;49.194;12.526;2022-09-28T06:22:08;9.50;99.90
18141;DHT22;9196;49.194;12.526;2022-09-28T06:24:34;9.50;99.90
18141;DHT22;9196;49.194;12.526;2022-09-28T06:27:01;9.60;99.90
18141;DHT22;9196;49.194;12.526;2022-09-28T06:29:28;9.60;99.90
18141;DHT22;9196;49.194;12.526;2022-09-28T06:31:55;9.60;99.90
18141;DHT22;9196;49.194;12.526;2022-09-28T06:34:22;9.60;99.90
18141;DHT22;9196;49.194;12.526;2022-09-28T06:36:49;9.60;99.90
18141;DHT22;9196;49.194;12.526;2022-09-28T06:39:17;9.50;99.90
18141;DHT22;9196;49.194;12.526;2022-09-28T06:41:44;9.50;99.90
18141;DHT22;9196;49.194;12.526;2022-09-28T06:44:11;9.60;99.90
18141;DHT22;9196;49.194;12.526;2022-09-28T06:46:37;9.60;99.90
18141;DHT22;9196;49.194;12.526;2022-09-28T06:49:04;9.60;99.90
18141;DHT22;9196;49.194;12.526;2022-09-28T06:51:34;9.60;99.90
18141;DHT22;9196;49.194;12.526;2022-09-28T06:54:02;9.60;99.90
18141;DHT22;9196;49.194;12.526;2022-09-28T06:56:30;9.60;99.90
18141;DHT22;9196;49.194;12.526;2022-09-28T06:58:57;9.50;99.90
18141;DHT22;9196;49.194;12.526;2022-09-28T07:01:23;9.50;99.90
18141;DHT22;9196;49.194;12.526;2022-09-28T07:03:50;9.50;99.90
18141;DHT22;9196;49.194;12.526;2022-09-28T07:06:17;9.50;99.90
18141;DHT22;9196;49.194;12.526;2022-09-28T07:08:45;9.50;99.90
18141;DHT22;9196;49.194;12.526;2022-09-28T07:11:11;9.40;99.90
18141;DHT22;9196;49.194;12.526;2022-09-28T07:13:41;9.40;99.90
18141;DHT22;9196;49.194;12.526;2022-09-28T07:16:08;9.40;99.90
18141;DHT22;9196;49.194;12.526;2022-09-28T07:18:34;9.30;99.90
18141;DHT22;9196;49.194;12.526;2022-09-28T07:21:01;9.40;99.90
18141;DHT22;9196;49.194;12.526;2022-09-28T07:23:32;9.30;99.90
18141;DHT22;9196;49.194;12.526;2022-09-28T07:26:02;9.30;99.90
18141;DHT22;9196;49.194;12.526;2022-09-28T07:28:29;9.30;99.90
18141;DHT22;9196;49.194;12.526;2022-09-28T07:30:57;9.30;99.90
18141;DHT22;9196;49.194;12.526;2022-09-28T07:33:24;9.30;99.90
18141;DHT22;9196;49.194;12.526;2022-09-28T07:35:57;9.40;99.90
18141;DHT22;9196;49.194;12.526;2022-09-28T07:38:26;9.30;99.90
18141;DHT22;9196;49.194;12.526;2022-09-28T07:40:52;9.30;99.90
18141;DHT22;9196;49.194;12.526;2022-09-28T07:43:47;9.40;99.90
18141;DHT22;9196;49.194;12.526;2022-09-28T07:46:15;9.40;99.90
18141;DHT22;9196;49.194;12.526;2022-09-28T07:48:42;9.40;99.90
18141;DHT22;9196;49.194;12.526;2022-09-28T07:51:10;9.40;99.90
18141;DHT22;9196;49.194;12.526;2022-09-28T07:53:37;9.30;99.90
18141;DHT22;9196;49.194;12.526;2022-09-28T07:56:04;9.40;99.90
18141;DHT22;9196;49.194;12.526;2022-09-28T07:58:33;9.40;99.90
18141;DHT22;9196;49.194;12.526;2022-09-28T08:01:06;9.40;99.90
18141;DHT22;9196;49.194;12.526;2022-09-28T08:03:34;9.40;99.90
18141;DHT22;9196;49.194;12.526;2022-09-28T08:06:03;9.40;99.90
18141;DHT22;9196;49.194;12.526;2022-09-28T08:08:32;9.40;99.90
18141;DHT22;9196;49.194;12.526;2022-09-28T08:10:59;9.40;99.90
18141;DHT22;9196;49.194;12.526;2022-09-28T08:13:26;9.40;99.90
18141;DHT22;9196;49.194;12.526;2022-09-28T08:15:53;9.40;99.90
18141;DHT22;9196;49.194;12.526;2022-09-28T08:18:20;9.40;99.90
18141;DHT22;9196;49.194;12.526;2022-09-28T08:20:50;9.40;99.90
18141;DHT22;9196;49.194;12.526;2022-09-28T08:23:35;9.50;99.90
18141;DHT22;9196;49.194;12.526;2022-09-28T08:26:03;9.50;99.90
18141;DHT22;9196;49.194;12.526;2022-09-28T08:28:30;9.50;99.90
18141;DHT22;9196;49.194;12.526;2022-09-28T08:30:58;9.50;99.90
18141;DHT22;9196;49.194;12.526;2022-09-28T08:33:26;9.50;99.90
18141;DHT22;9196;49.194;12.526;2022-09-28T08:35:58;9.60;99.90
18141;DHT22;9196;49.194;12.526;2022-09-28T08:38:26;9.50;99.90
18141;DHT22;9196;49.194;12.526;2022-09-28T08:41:02;9.50;99.90
18141;DHT22;9196;49.194;12.526;2022-09-28T08:43:46;9.60;99.90
18141;DHT22;9196;49.194;12.526;2022-09-28T08:46:19;9.60;99.90
18141;DHT22;9196;49.194;12.526;2022-09-28T08:48:50;9.70;99.90
18141;DHT22;9196;49.194;12.526;2022-09-28T08:51:23;9.70;99.90
18141;DHT22;9196;49.194;12.526;2022-09-28T08:53:56;9.70;99.90
18141;DHT22;9196;49.194;12.526;2022-09-28T08:56:33;9.70;99.90
18141;DHT22;9196;49.194;12.526;2022-09-28T08:59:08;9.70;99.90
18141;DHT22;9196;49.194;12.526;2022-09-28T09:01:41;9.70;99.90
18141;DHT22;9196;49.194;12.526;2022-09-28T09:04:09;9.70;99.90
18141;DHT22;9196;49.194;12.526;2022-09-28T09:06:50;9.60;99.90
18141;DHT22;9196;49.194;12.526;2022-09-28T09:09:26;9.70;99.90
18141;DHT22;9196;49.194;12.526;2022-09-28T09:12:02;9.80;99.90
18141;DHT22;9196;49.194;12.526;2022-09-28T09:14:53;9.80;99.90
18141;DHT22;9196;49.194;12.526;2022-09-28T09:17:35;9.90;99.90
18141;DHT22;9196;49.194;12.526;2022-09-28T09:20:14;9.90;99.90
18141;DHT22;9196;49.194;12.526;2022-09-28T09:22:52;10.00;99.90
18141;DHT22;9196;49.194;12.526;2022-09-28T09:25:26;10.00;99.90
18141;DHT22;9196;49.194;12.526;2022-09-28T09:31:09;10.00;99.90
18141;DHT22;9196;49.194;12.526;2022-09-28T09:34:09;10.00;99.90
18141;DHT22;9196;49.194;12.526;2022-09-28T09:36:55;10.10;99.90
18141;DHT22;9196;49.194;12.526;2022-09-28T09:39:36;10.10;99.90
18141;DHT22;9196;49.194;12.526;2022-09-28T09:42:13;10.10;99.90
18141;DHT22;9196;49.194;12.526;2022-09-28T09:44:59;10.20;99.90
18141;DHT22;9196;49.194;12.526;2022-09-28T09:47:34;10.30;99.90
18141;DHT22;9196;49.194;12.526;2022-09-28T09:50:07;10.30;99.90
18141;DHT22;9196;49.194;12.526;2022-09-28T09:52:43;10.30;99.90
18141;DHT22;9196;49.194;12.526;2022-09-28T09:55:17;10.30;99.90
18141;DHT22;9196;49.194;12.526;2022-09-28T09:57:49;10.20;99.90
18141;DHT22;9196;49.194;12.526;2022-09-28T10:00:17;10.20;99.90
18141;DHT22;9196;49.194;12.526;2022-09-28T10:02:46;10.10;99.90
18141;DHT22;9196;49.194;12.526;2022-09-28T10:05:18;10.20;99.90
18141;DHT22;9196;49.194;12.526;2022-09-28T10:07:50;10.30;99.90
18141;DHT22;9196;49.194;12.526;2022-09-28T10:10:22;10.30;99.90
18141;DHT22;9196;49.194;12.526;2022-09-28T10:12:51;10.30;99.90
18141;DHT22;9196;49.194;12.526;2022-09-28T10:15:23;10.20;99.90
18141;DHT22;9196;49.194;12.526;2022-09-28T10:17:50;10.30;99.90
18141;DHT22;9196;49.194;12.526;2022-09-28T10:20:17;10.30;99.90
18141;DHT22;9196;49.194;12.526;2022-09-28T10:22:44;10.40;99.90
18141;DHT22;9196;49.194;12.526;2022-09-28T10:25:12;10.60;99.90
18141;DHT22;9196;49.194;12.526;2022-09-28T10:27:43;10.80;99.90
18141;DHT22;9196;49.194;12.526;2022-09-28T10:30:14;11.00;99.90
18141;DHT22;9196;49.194;12.526;2022-09-28T10:32:43;11.20;99.90
18141;DHT22;9196;49.194;12.526;2022-09-28T10:35:22;11.50;99.90
18141;DHT22;9196;49.194;12.526;2022-09-28T10:37:55;11.80;99.90
18141;DHT22;9196;49.194;12.526;2022-09-28T10:40:33;11.90;99.90
18141;DHT22;9196;49.194;12.526;2022-09-28T10:43:07;11.90;99.90
18141;DHT22;9196;49.194;12.526;2022-09-28T10:45:41;11.70;99.90
18141;DHT22;9196;49.194;12.526;2022-09-28T10:48:15;11.80;99.90
18141;DHT22;9196;49.194;12.526;2022-09-28T10:50:57;11.80;99.90
18141;DHT22;9196;49.194;12.526;2022-09-28T10:53:24;11.90;99.90
18141;DHT22;9196;49.194;12.526;2022-09-28T10:56:00;12.00;99.90
18141;DHT22;9196;49.194;12.526;2022-09-28T10:58:36;12.20;99.90
18141;DHT22;9196;49.194;12.526;2022-09-28T11:01:08;12.50;99.90
18141;DHT22;9196;49.194;12.526;2022-09-28T11:03:46;12.50;99.90
18141;DHT22;9196;49.194;12.526;2022-09-28T11:06:14;12.50;99.90
18141;DHT22;9196;49.194;12.526;2022-09-28T11:08:42;12.40;99.90
18141;DHT22;9196;49.194;12.526;2022-09-28T11:11:11;12.30;99.90
18141;DHT22;9196;49.194;12.526;2022-09-28T11:13:45;12.30;99.90
18141;DHT22;9196;49.194;12.526;2022-09-28T11:16:22;12.10;99.90
18141;DHT22;9196;49.194;12.526;2022-09-28T11:18:49;11.90;99.90
18141;DHT22;9196;49.194;12.526;2022-09-28T11:21:19;11.70;99.90
18141;DHT22;9196;49.194;12.526;2022-09-28T11:24:03;11.50;99.90
18141;DHT22;9196;49.194;12.526;2022-09-28T11:26:38;11.50;99.90
18141;DHT22;9196;49.194;12.526;2022-09-28T11:29:18;11.50;99.90
18141;DHT22;9196;49.194;12.526;2022-09-28T11:31:45;11.70;99.90
18141;DHT22;9196;49.194;12.526;2022-09-28T11:34:15;11.70;99.90
18141;DHT22;9196;49.194;12.526;2022-09-28T11:36:58;12.00;99.90
18141;DHT22;9196;49.194;12.526;2022-09-28T11:39:34;12.20;99.90
18141;DHT22;9196;49.194;12.526;2022-09-28T11:42:14;12.40;99.90
18141;DHT22;9196;49.194;12.526;2022-09-28T11:44:43;12.40;99.90
18141;DHT22;9196;49.194;12.526;2022-09-28T11:50:17;12.30;99.90
18141;DHT22;9196;49.194;12.526;2022-09-28T11:52:50;11.90;99.90
18141;DHT22;9196;49.194;12.526;2022-09-28T11:55:25;11.90;99.90
18141;DHT22;9196;49.194;12.526;2022-09-28T11:58:00;11.80;99.90
18141;DHT22;9196;49.194;12.526;2022-09-28T12:03:04;11.70;99.90
18141;DHT22;9196;49.194;12.526;2022-09-28T12:05:35;11.70;99.90
18141;DHT22;9196;49.194;12.526;2022-09-28T12:08:07;11.60;99.90
18141;DHT22;9196;49.194;12.526;2022-09-28T12:10:37;11.50;99.90
18141;DHT22;9196;49.194;12.526;2022-09-28T12:13:10;11.40;99.90
18141;DHT22;9196;49.194;12.526;2022-09-28T12:15:45;11.20;99.90
18141;DHT22;9196;49.194;12.526;2022-09-28T12:18:16;11.10;99.90
18141;DHT22;9196;49.194;12.526;2022-09-28T12:20:47;11.10;99.90
18141;DHT22;9196;49.194;12.526;2022-09-28T12:23:16;11.20;99.90
18141;DHT22;9196;49.194;12.526;2022-09-28T12:25:47;11.10;99.90
18141;DHT22;9196;49.194;12.526;2022-09-28T12:28:21;11.00;99.90
18141;DHT22;9196;49.194;12.526;2022-09-28T12:30:53;10.90;99.90
18141;DHT22;9196;49.194;12.526;2022-09-28T12:33:22;10.80;99.90
18141;DHT22;9196;49.194;12.526;2022-09-28T12:36:01;10.80;99.90
18141;DHT22;9196;49.194;12.526;2022-09-28T12:38:44;10.80;99.90
18141;DHT22;9196;49.194;12.526;2022-09-28T12:41:23;10.90;99.90
18141;DHT22;9196;49.194;12.526;2022-09-28T12:44:04;10.90;99.90
18141;DHT22;9196;49.194;12.526;2022-09-28T12:46:58;11.10;99.90
18141;DHT22;9196;49.194;12.526;2022-09-28T12:49:35;11.10;99.90
18141;DHT22;9196;49.194;12.526;2022-09-28T12:52:21;11.10;99.90
18141;DHT22;9196;49.194;12.526;2022-09-28T12:55:10;11.10;99.90
18141;DHT22;9196;49.194;12.526;2022-09-28T12:57:53;11.20;99.90
18141;DHT22;9196;49.194;12.526;2022-09-28T13:00:23;11.40;99.90
18141;DHT22;9196;49.194;12.526;2022-09-28T13:03:20;11.50;99.90
18141;DHT22;9196;49.194;12.526;2022-09-28T13:06:28;11.80;99.90
18141;DHT22;9196;49.194;12.526;2022-09-28T13:09:13;11.80;99.90
18141;DHT22;9196;49.194;12.526;2022-09-28T13:11:51;11.80;99.90
18141;DHT22;9196;49.194;12.526;2022-09-28T13:17:36;11.80;99.90
18141;DHT22;9196;49.194;12.526;2022-09-28T13:20:14;11.70;99.90
18141;DHT22;9196;49.194;12.526;2022-09-28T13:22:49;11.70;99.90
18141;DHT22;9196;49.194;12.526;2022-09-28T13:25:22;11.70;99.90
18141;DHT22;9196;49.194;12.526;2022-09-28T13:27:54;11.80;99.90
18141;DHT22;9196;49.194;12.526;2022-09-28T13:30:22;12.00;99.90
18141;DHT22;9196;49.194;12.526;2022-09-28T13:32:50;12.10;99.90
18141;DHT22;9196;49.194;12.526;2022-09-28T13:35:20;12.10;99.90
18141;DHT22;9196;49.194;12.526;2022-09-28T13:37:47;12.30;99.90
18141;DHT22;9196;49.194;12.526;2022-09-28T13:44:08;12.50;99.90
18141;DHT22;9196;49.194;12.526;2022-09-28T13:46:45;12.60;99.90
18141;DHT22;9196;49.194;12.526;2022-09-28T13:49:20;12.70;99.90
18141;DHT22;9196;49.194;12.526;2022-09-28T13:52:01;12.70;99.90
18141;DHT22;9196;49.194;12.526;2022-09-28T13:54:55;12.50;99.90
18141;DHT22;9196;49.194;12.526;2022-09-28T13:57:30;12.40;99.90
18141;DHT22;9196;49.194;12.526;2022-09-28T14:00:14;12.40;99.90
18141;DHT22;9196;49.194;12.526;2022-09-28T14:02:45;12.50;99.90
18141;DHT22;9196;49.194;12.526;2022-09-28T14:08:30;12.50;99.90
18141;DHT22;9196;49.194;12.526;2022-09-28T14:11:24;12.70;99.90
18141;DHT22;9196;49.194;12.526;2022-09-28T14:14:16;12.60;99.90
18141;DHT22;9196;49.194;12.526;2022-09-28T14:16:53;12.70;99.90
18141;DHT22;9196;49.194;12.526;2022-09-28T14:19:27;12.60;99.90
18141;DHT22;9196;49.194;12.526;2022-09-28T14:22:04;12.40;99.90
18141;DHT22;9196;49.194;12.526;2022-09-28T14:24:43;12.20;99.90
18141;DHT22;9196;49.194;12.526;2022-09-28T14:27:39;12.10;99.90
18141;DHT22;9196;49.194;12.526;2022-09-28T14:30:22;12.10;99.90
18141;DHT22;9196;49.194;12.526;2022-09-28T14:32:54;12.00;99.90
18141;DHT22;9196;49.194;12.526;2022-09-28T14:35:29;12.00;99.90
18141;DHT22;9196;49.194;12.526;2022-09-28T14:37:59;12.10;99.90
18141;DHT22;9196;49.194;12.526;2022-09-28T14:41:00;12.30;99.90
18141;DHT22;9196;49.194;12.526;2022-09-28T14:44:02;12.80;99.90
18141;DHT22;9196;49.194;12.526;2022-09-28T14:46:34;13.30;99.90
18141;DHT22;9196;49.194;12.526;2022-09-28T14:49:04;13.40;99.90
18141;DHT22;9196;49.194;12.526;2022-09-28T14:51:59;13.10;99.90
18141;DHT22;9196;49.194;12.526;2022-09-28T14:57:20;12.90;99.90
18141;DHT22;9196;49.194;12.526;2022-09-28T14:59:48;12.90;99.90
18141;DHT22;9196;49.194;12.526;2022-09-28T15:02:21;12.80;99.90
18141;DHT22;9196;49.194;12.526;2022-09-28T15:04:52;12.90;99.90
18141;DHT22;9196;49.194;12.526;2022-09-28T15:07:22;12.80;99.90
18141;DHT22;9196;49.194;12.526;2022-09-28T15:09:51;12.80;99.90
18141;DHT22;9196;49.194;12.526;2022-09-28T15:12:23;12.90;99.90
18141;DHT22;9196;49.194;12.526;2022-09-28T15:14:53;13.00;99.90
18141;DHT22;9196;49.194;12.526;2022-09-28T15:17:23;13.00;99.90
18141;DHT22;9196;49.194;12.526;2022-09-28T15:22:44;12.70;99.90
18141;DHT22;9196;49.194;12.526;2022-09-28T15:25:13;12.60;99.90
18141;DHT22;9196;49.194;12.526;2022-09-28T15:27:41;12.60;99.90
18141;DHT22;9196;49.194;12.526;2022-09-28T15:30:19;12.60;99.90
18141;DHT22;9196;49.194;12.526;2022-09-28T15:32:48;12.60;99.90
18141;DHT22;9196;49.194;12.526;2022-09-28T15:35:19;12.60;99.90
18141;DHT22;9196;49.194;12.526;2022-09-28T15:37:46;12.60;99.90
18141;DHT22;9196;49.194;12.526;2022-09-28T15:40:18;12.60;99.90
18141;DHT22;9196;49.194;12.526;2022-09-28T15:42:48;12.60;99.90
18141;DHT22;9196;49.194;12.526;2022-09-28T15:45:25;12.60;99.90
18141;DHT22;9196;49.194;12.526;2022-09-28T15:50:56;12.50;99.90
18141;DHT22;9196;49.194;12.526;2022-09-28T15:53:23;12.50;99.90
18141;DHT22;9196;49.194;12.526;2022-09-28T15:55:50;12.50;99.90
18141;DHT22;9196;49.194;12.526;2022-09-28T15:58:21;12.40;99.90
18141;DHT22;9196;49.194;12.526;2022-09-28T16:00:50;12.30;99.90
18141;DHT22;9196;49.194;12.526;2022-09-28T16:03:37;12.20;99.90
18141;DHT22;9196;49.194;12.526;2022-09-28T16:06:06;12.20;99.90
18141;DHT22;9196;49.194;12.526;2022-09-28T16:08:38;12.20;99.90
18141;DHT22;9196;49.194;12.526;2022-09-28T16:11:11;12.20;99.90
18141;DHT22;9196;49.194;12.526;2022-09-28T16:13:54;12.20;99.90
18141;DHT22;9196;49.194;12.526;2022-09-28T16:16:25;12.20;99.90
18141;DHT22;9196;49.194;12.526;2022-09-28T16:18:53;12.10;99.90
18141;DHT22;9196;49.194;12.526;2022-09-28T16:21:36;12.10;99.90
18141;DHT22;9196;49.194;12.526;2022-09-28T16:24:04;12.10;99.90
18141;DHT22;9196;49.194;12.526;2022-09-28T16:26:33;12.00;99.90
18141;DHT22;9196;49.194;12.526;2022-09-28T16:29:14;12.00;99.90
18141;DHT22;9196;49.194;12.526;2022-09-28T16:31:49;12.00;99.90
18141;DHT22;9196;49.194;12.526;2022-09-28T16:34:19;11.90;99.90
18141;DHT22;9196;49.194;12.526;2022-09-28T16:36:49;11.90;99.90
18141;DHT22;9196;49.194;12.526;2022-09-28T16:39:17;11.90;99.90
18141;DHT22;9196;49.194;12.526;2022-09-28T16:41:47;11.70;99.90